Date,TemperatureHighF,TemperatureAvgF,TemperatureLowF,DewpointHighF,DewpointAvgF,DewpointLowF,HumidityHigh,HumidityAvg,HumidityLow,PressureMaxIn,PressureMinIn,WindSpeedMaxMPH,WindSpeedAvgMPH,GustSpeedMaxMPH,PrecipitationSumIn
2013-1-1,40.6,37.1,33.8,35.6,32.9,30.2,90,85,80,30.18,30.01,8,5,10,0.00
2013-1-2,49.3,35.2,29.5,37.1,30.4,26.4,92,83,63,30.01,29.86,11,6,14,0.00
2013-1-3,41.9,34.3,25.9,35.0,28.5,22.9,92,80,65,29.86,29.73,19,6,23,0.01
2013-1-4,54.1,40.7,34.5,43.2,36.7,30.2,91,86,67,29.96,29.78,14,4,16,0.01
2013-1-5,46.9,43.2,38.7,42.6,40.0,35.7,97,89,77,29.84,29.70,34,9,40,0.01
2013-1-6,43.9,39.5,34.0,39.3,36.2,30.9,94,88,80,29.81,29.55,10,5,11,0.00
2013-1-7,51.3,44.1,38.3,45.2,39.8,36.2,97,86,63,29.81,29.44,56,15,63,0.09
2013-1-8,46.6,43.2,39.9,45.5,40.3,37.4,97,90,80,29.81,29.30,30,7,34,0.39
2013-1-9,45.3,41.0,32.2,43.5,35.2,25.8,94,80,69,29.60,29.32,56,22,64,0.13
2013-1-10,41.0,35.3,29.8,35.2,29.6,25.3,89,80,69,29.82,29.60,18,6,24,0.04
2013-1-11,41.0,35.2,28.0,29.4,19.5,13.2,78,55,38,30.00,29.83,13,6,18,0.00
2013-1-12,42.3,30.6,26.4,28.7,20.5,17.6,78,67,54,30.12,29.99,11,7,13,0.00
2013-1-13,38.1,31.2,25.5,28.5,23.4,18.3,81,73,61,30.15,30.09,10,6,12,0.00
2013-1-14,40.3,36.0,32.9,36.2,31.5,27.6,89,84,78,30.25,30.12,8,4,9,0.00
2013-1-15,42.8,36.5,30.9,37.1,31.7,28.1,91,83,71,30.38,30.26,9,5,11,0.00
2013-1-16,41.4,37.1,35.1,34.3,31.3,29.4,82,79,75,30.36,30.20,8,5,11,0.00
2013-1-17,42.4,36.8,32.4,37.0,32.8,29.5,91,86,80,30.21,29.95,8,4,9,0.00
2013-1-18,46.2,36.6,34.2,41.6,34.4,32.4,97,92,83,30.02,29.93,8,3,10,0.00
2013-1-19,44.1,35.9,30.7,37.9,32.5,28.4,92,87,78,30.06,30.02,0,0,0,0.00
2013-1-20,45.5,36.7,30.7,40.3,34.4,28.4,97,91,81,30.07,29.95,0,0,0,0.00
2013-1-21,38.8,35.6,32.2,38.3,33.9,30.7,99,93,89,29.95,29.80,0,0,0,0.00
2013-1-22,38.5,35.5,33.8,36.4,32.6,31.2,92,89,84,29.81,29.58,0,0,0,0.00
2013-1-23,43.9,40.9,36.0,41.8,38.1,30.4,95,90,74,29.80,29.48,0,0,0,0.05
2013-1-24,42.1,38.6,34.2,38.1,34.9,29.5,94,87,81,29.85,29.64,0,0,0,0.00
2013-1-25,54.0,40.2,32.7,45.6,36.0,29.0,94,85,69,29.71,29.52,0,0,4,0.01
2013-1-26,46.2,40.2,33.8,42.4,36.7,29.9,93,87,80,29.69,29.49,0,0,0,0.08
2013-1-27,44.6,39.8,35.8,39.1,36.0,30.6,96,87,71,29.70,29.63,0,0,0,0.08
2013-1-28,47.3,44.3,41.7,39.2,37.0,33.9,89,76,66,29.72,29.64,0,0,0,0.04
2013-1-29,48.2,46.1,43.9,45.3,42.4,39.0,95,87,73,29.98,29.72,0,0,0,0.06
2013-1-30,48.7,45.5,43.5,47.7,44.4,42.2,97,96,88,30.04,29.91,11,2,12,0.19
2013-1-31,50.5,45.6,42.6,48.2,44.3,42.3,99,95,84,29.93,29.83,21,8,27,0.01
2013-2-1,48.2,43.9,39.4,44.2,41.7,37.3,99,92,79,29.99,29.91,13,4,15,0.00
2013-2-2,46.2,42.4,37.9,42.4,40.2,37.2,99,92,82,29.97,29.80,8,3,11,0.01
2013-2-3,47.3,42.1,36.7,43.4,40.2,35.3,99,93,79,29.85,29.73,10,4,11,1.03
2013-2-4,48.9,42.9,37.4,44.6,40.9,37.1,99,93,84,29.74,29.37,11,4,16,1.30
2013-2-5,57.2,44.1,37.2,46.1,41.0,35.7,98,89,64,29.46,29.31,11,5,15,0.05
2013-2-6,45.7,41.9,36.3,42.3,39.0,34.2,97,90,79,29.53,29.22,27,9,32,0.01
2013-2-7,48.0,42.1,35.8,41.1,36.4,30.7,94,80,70,29.77,29.26,17,8,25,0.00
2013-2-8,47.8,39.7,30.7,37.8,33.2,26.8,87,78,63,29.86,29.77,9,5,11,0.00
2013-2-9,45.0,41.2,37.0,42.6,38.9,32.4,98,92,83,29.91,29.81,5,2,8,0.06
2013-2-10,46.0,43.0,39.2,40.8,39.0,36.7,96,86,74,29.94,29.88,23,3,24,0.00
2013-2-12,48.0,46.0,44.2,43.4,41.7,39.9,91,85,78,29.84,29.80,25,12,40,0.00
2013-2-13,49.5,45.6,42.3,42.5,39.8,36.8,87,80,73,30.05,29.83,38,13,46,0.00
2013-2-14,49.5,44.7,42.6,43.4,41.5,39.8,93,88,75,30.12,30.03,11,4,13,0.11
2013-2-15,47.7,44.5,41.0,44.9,42.0,38.9,95,91,85,30.12,29.73,8,3,11,0.02
2013-2-16,48.0,44.7,41.2,42.6,39.3,36.4,93,82,71,29.74,29.61,68,27,81,0.00
2013-2-17,48.4,41.5,33.6,36.6,33.5,28.1,87,74,58,29.78,29.65,35,8,47,0.00
2013-2-18,50.5,40.0,35.1,37.4,33.6,30.7,88,79,61,29.65,29.27,9,5,14,0.00
2013-2-19,51.8,40.4,32.7,38.9,32.9,26.5,85,75,52,29.56,29.27,14,5,19,0.00
2013-2-20,51.3,38.3,31.1,38.8,31.3,26.3,85,76,62,29.58,29.52,14,7,20,0.00
2013-2-21,48.9,41.7,36.0,38.8,35.0,29.1,84,77,64,29.60,29.52,15,6,21,0.00
2013-2-22,50.9,42.7,38.3,42.5,37.0,29.4,89,80,66,29.56,29.16,61,16,69,0.01
2013-2-23,46.2,43.5,36.1,36.3,33.1,28.6,77,67,61,29.91,29.44,53,29,65,0.00
2013-2-24,53.2,42.2,38.1,37.9,34.5,29.4,84,74,54,29.91,29.38,9,4,11,0.00
2013-2-25,48.2,44.5,35.1,40.4,33.4,21.9,87,67,48,29.84,29.37,65,28,80,0.01
2013-2-26,50.0,39.8,33.4,37.2,28.9,19.8,84,66,51,29.86,29.67,25,6,30,0.00
2013-2-27,50.0,42.3,35.8,40.2,36.2,31.4,87,79,57,29.84,29.73,14,6,17,0.01
2013-2-28,47.3,43.4,38.8,43.2,39.6,34.5,93,86,79,29.81,29.69,15,6,17,0.06
2013-3-1,58.5,49.6,43.5,48.5,44.5,41.4,93,83,65,29.81,29.77,15,6,20,0.00
2013-3-2,48.9,45.8,43.0,46.4,40.7,31.2,94,83,61,29.79,29.62,50,21,61,2.80
2013-3-3,47.8,43.3,32.2,38.0,33.9,27.9,85,70,62,29.87,29.74,41,21,49,0.00
2013-3-4,49.8,38.9,29.8,36.1,30.2,24.5,85,71,57,29.86,29.50,12,7,21,0.00
2013-3-5,48.9,40.7,33.6,39.0,33.8,27.4,88,77,60,29.50,29.30,24,7,27,0.00
2013-3-6,42.8,41.5,39.2,39.1,37.7,36.3,92,86,83,29.44,29.20,11,6,21,0.20
2013-3-7,49.3,42.8,39.0,42.4,39.1,37.2,94,87,74,29.67,29.44,10,5,14,0.04
2013-3-8,52.0,43.1,35.1,41.1,37.1,30.4,90,80,62,29.81,29.65,8,3,13,0.00
2013-3-9,52.9,42.5,31.3,40.7,35.1,27.6,86,76,64,30.05,29.81,19,7,22,0.00
2013-3-10,44.4,43.4,42.3,38.2,36.8,35.3,85,78,72,30.05,30.01,15,8,18,0.02
2013-3-12,52.5,47.6,42.6,48.3,44.4,39.1,92,89,85,29.60,29.53,12,4,17,0.28
2013-3-13,54.0,48.3,46.0,51.4,46.0,44.1,94,92,85,29.69,29.59,17,4,19,0.05
2013-3-14,53.8,47.6,45.5,50.1,45.2,43.5,95,92,76,29.67,29.55,10,4,14,0.00
2013-3-15,54.0,46.6,40.6,49.5,44.1,39.3,95,91,77,29.76,29.68,20,6,23,0.01
2013-3-16,47.1,44.7,41.9,44.9,40.1,33.7,92,84,70,29.68,29.40,58,24,68,0.06
2013-3-17,45.0,42.8,38.8,35.9,32.4,27.8,81,67,54,29.72,29.50,53,34,60,0.00
2013-3-18,47.7,43.0,36.0,37.2,33.4,28.4,85,70,56,29.80,29.62,50,23,59,0.05
2013-3-19,46.6,40.4,32.2,38.6,32.6,26.6,85,74,64,29.78,29.03,27,8,33,0.00
2013-3-20,57.9,45.3,39.7,45.5,37.5,26.5,89,75,55,29.55,28.80,60,20,79,0.04
2013-3-21,43.9,39.8,32.4,35.4,31.0,23.4,85,71,57,29.76,29.55,54,25,59,0.00
2013-3-22,51.3,42.0,33.1,32.0,27.4,18.7,72,58,31,29.94,29.75,36,14,41,0.00
2013-3-23,48.0,40.3,32.9,35.0,28.7,24.1,74,64,53,29.94,29.86,11,6,18,0.00
2013-3-24,50.5,40.0,31.5,36.7,30.8,25.7,82,70,55,29.86,29.69,11,6,15,0.00
2013-3-25,57.2,43.5,31.6,39.0,32.8,27.4,84,68,44,29.69,29.52,8,5,11,0.00
2013-3-26,55.2,46.2,38.1,41.5,37.4,31.5,82,72,57,29.58,29.54,12,5,14,0.00
2013-3-27,53.8,47.8,41.0,44.5,40.6,37.1,92,77,62,29.57,29.52,9,4,11,0.01
2013-3-28,56.1,46.7,38.5,46.9,41.5,36.1,93,83,67,29.71,29.57,11,4,14,0.00
2013-3-29,48.4,44.2,41.5,46.1,42.2,37.7,97,93,82,29.84,29.71,20,8,23,0.00
2013-3-30,64.9,49.2,35.4,50.3,41.9,33.9,99,79,45,29.85,29.67,11,4,14,0.01
2013-3-31,67.8,52.4,46.9,45.1,40.2,37.8,79,67,42,29.66,29.49,11,4,14,0.00
2013-4-1,60.3,60.0,52.2,37.8,37.8,37.8,45,45,45,29.70,29.53,25,10,30,3.70
2013-4-2,60.3,60.2,52.2,37.8,37.8,37.8,45,45,45,29.77,29.70,24,9,25,3.70
2013-4-3,60.3,60.3,60.3,37.8,37.8,37.8,45,45,45,29.76,29.54,14,6,17,0.00
2013-4-4,60.3,60.3,60.3,37.8,37.8,37.8,45,45,45,29.52,29.13,15,6,17,0.00
2013-4-5,60.3,60.1,52.2,37.8,37.8,37.8,45,45,45,29.38,29.20,15,13,17,0.05
2013-4-6,60.3,60.3,60.3,37.8,37.8,37.8,45,45,45,29.45,29.15,21,7,33,3.94
2013-4-7,60.3,48.9,0.0,37.8,30.6,0.0,45,36,45,29.42,29.14,4,4,6,3.94
2013-4-8,58.1,38.2,0.0,43.8,30.9,0.0,83,52,55,30.06,29.46,17,7,22,3.94
2013-4-9,50.2,47.4,43.5,43.7,41.8,39.5,88,81,74,30.14,29.93,19,4,22,0.01
2013-4-10,51.4,47.0,40.6,45.3,41.4,37.9,90,81,66,30.03,29.67,62,28,74,0.12
2013-4-11,49.8,46.6,43.2,41.5,37.5,33.6,81,71,65,30.09,29.99,42,25,51,0.00
2013-4-12,45.7,43.4,41.5,40.1,35.2,31.6,86,73,61,29.99,29.44,66,11,84,0.12
2013-4-13,48.6,43.9,39.4,41.6,35.6,29.6,83,73,60,29.79,29.53,57,25,68,0.19
2013-4-14,54.1,43.5,35.8,40.9,35.4,29.8,86,74,58,29.81,29.74,9,5,14,0.00
2013-4-15,52.0,45.1,34.2,41.8,36.9,28.6,83,73,64,29.99,29.75,21,10,25,0.00
2013-4-16,66.9,48.5,34.5,39.9,31.6,17.9,82,56,22,30.21,29.99,11,4,13,0.00
2013-4-17,52.9,45.9,40.5,45.5,37.1,26.5,87,73,53,30.26,30.19,40,18,45,0.00
2013-4-18,55.8,47.6,43.7,47.8,44.6,41.1,96,90,71,30.25,29.97,30,7,33,0.07
2013-4-19,51.1,48.6,46.8,50.3,47.4,45.7,97,96,94,30.00,29.86,36,12,46,0.19
2013-4-20,50.2,47.9,46.8,46.4,44.5,42.5,95,88,80,30.07,29.98,37,24,46,0.00
2013-4-21,55.0,46.7,42.4,43.9,41.2,36.0,87,81,63,30.20,30.02,36,16,40,0.00
2013-4-22,67.6,47.6,35.2,41.7,30.9,9.1,83,59,17,30.38,30.21,11,6,14,0.00
2013-4-23,63.5,47.8,34.7,44.1,33.0,21.3,77,58,37,30.25,30.08,13,5,14,0.00
2013-4-24,65.5,52.3,39.7,46.1,39.1,30.6,77,62,32,30.15,29.88,18,7,24,0.00
2013-4-25,59.5,50.4,41.4,49.6,45.8,37.0,99,85,66,29.97,29.85,34,13,41,0.00
2013-4-26,57.0,50.1,43.7,49.4,44.5,35.9,97,83,52,30.07,29.97,30,12,38,0.00
2013-4-27,55.0,50.7,47.5,49.2,46.4,43.3,99,86,71,30.01,29.94,21,9,24,0.00
2013-4-28,50.7,47.6,45.9,47.0,42.9,39.0,97,84,66,30.02,29.73,30,14,34,0.02
2013-4-29,47.7,45.9,45.5,45.6,38.9,37.9,97,77,73,29.96,29.70,63,38,72,0.04
2013-4-30,45.7,45.7,45.7,38.1,38.1,38.1,75,75,75,30.26,29.94,20,3,22,0.00
2013-5-1,45.7,45.7,45.7,38.1,38.1,38.1,75,75,75,30.41,30.27,12,4,15,0.00
2013-5-2,45.7,45.7,45.7,38.1,38.1,38.1,75,75,75,30.38,30.22,12,4,17,0.00
2013-5-3,45.7,45.7,45.7,38.1,38.1,38.1,75,75,75,30.24,30.08,9,4,11,0.00
2013-5-5,45.7,45.7,45.7,38.1,38.1,38.1,75,75,75,29.81,29.68,10,5,11,0.00
2013-5-6,45.7,45.7,45.7,38.1,38.1,38.1,75,75,75,29.62,29.61,24,24,26,0.00
2013-5-7,45.7,45.7,45.7,38.1,38.1,38.1,75,75,75,29.81,29.63,24,24,26,0.00
2013-5-8,45.7,45.7,45.7,38.1,38.1,38.1,75,75,75,29.96,29.81,24,24,26,0.00
2013-5-9,45.7,45.7,45.7,38.1,38.1,38.1,75,75,75,30.04,29.95,24,24,26,0.00
2013-5-10,45.7,45.7,45.7,38.1,38.1,38.1,75,75,75,30.03,29.98,24,24,26,0.00
2013-5-12,45.7,45.7,45.7,38.1,38.1,38.1,75,75,75,29.84,29.81,24,24,26,0.00
2013-5-13,45.7,45.7,45.7,38.1,38.1,38.1,75,75,75,29.99,29.71,24,24,26,0.00
2013-5-14,45.7,45.7,45.7,38.1,38.1,38.1,75,75,75,30.03,29.94,24,24,26,0.00
2013-5-15,45.7,45.7,45.7,38.1,38.1,38.1,75,75,75,29.94,29.82,24,24,26,0.00
2013-5-16,45.7,45.7,45.7,38.1,38.1,38.1,75,75,75,29.82,29.70,24,24,26,0.00
2013-5-17,59.5,48.9,45.7,52.1,42.5,38.1,94,79,75,30.01,29.75,24,17,26,0.02
2013-5-18,56.8,52.4,50.2,52.7,48.9,47.6,97,88,76,30.25,30.01,21,6,24,0.00
2013-5-19,57.0,52.1,50.0,49.3,46.7,45.0,94,82,68,30.40,30.25,30,17,36,0.00
2013-5-20,54.3,50.3,46.2,48.2,45.7,42.6,89,84,74,30.34,30.04,32,13,38,0.00
2013-5-27,53.4,51.8,50.5,52.0,49.2,47.7,96,91,85,29.71,29.65,12,8,16,0.02
2013-5-28,54.9,54.2,51.6,51.4,49.8,47.4,93,85,84,29.76,29.70,11,2,14,0.00
2013-5-29,54.9,54.9,54.9,50.1,50.1,50.1,84,84,84,29.76,29.76,1,1,2,0.00
2013-5-30,54.9,54.9,54.9,50.1,50.1,50.1,84,84,84,29.76,29.76,1,1,2,0.00
2013-5-31,54.9,54.9,54.9,50.1,50.1,50.1,84,84,84,29.76,29.76,1,1,2,0.00
2013-6-1,54.9,54.9,54.9,50.1,50.1,50.1,84,84,84,29.76,29.76,1,1,2,0.00
2013-6-2,54.9,54.9,54.9,50.1,50.1,50.1,84,84,84,29.76,29.76,1,1,2,0.00
2013-6-11,51.8,51.8,51.8,48.6,48.6,48.6,89,89,89,30.04,29.93,12,7,15,0.22
2013-6-12,51.8,51.8,51.8,48.6,48.6,48.6,89,89,89,30.09,30.03,14,6,19,0.00
2013-6-13,51.8,51.8,51.8,48.6,48.6,48.6,89,89,89,30.16,30.08,36,17,41,0.00
2013-6-14,51.8,51.8,51.8,48.6,48.6,48.6,89,89,89,30.17,30.03,21,8,27,0.00
2013-6-15,51.8,51.8,51.8,48.6,48.6,48.6,89,89,89,30.03,29.94,5,3,7,0.00
2013-6-16,51.8,51.8,51.8,48.6,48.6,48.6,89,89,89,30.02,29.98,25,14,28,0.00
2013-6-17,51.8,51.8,51.8,48.6,48.6,48.6,89,89,89,29.92,29.88,27,21,30,0.02
2013-6-18,51.8,51.8,51.8,48.6,48.6,48.6,89,89,89,29.91,29.87,22,17,27,0.02
2013-6-19,51.8,51.8,51.8,48.6,48.6,48.6,89,89,89,29.95,29.85,22,22,24,0.02
2013-6-20,51.8,51.8,51.8,48.6,48.6,48.6,89,89,89,30.04,29.85,22,22,24,0.02
2013-6-21,51.8,45.0,0.0,48.6,42.2,0.0,89,77,89,30.13,30.04,22,19,24,0.02
2013-6-22,0.0,0.0,0.0,0.0,0.0,0.0,0,0,100,30.09,29.82,0,0,0,0.02
2013-6-23,0.0,0.0,0.0,0.0,0.0,0.0,0,0,100,29.83,29.54,0,0,0,0.02
2013-6-24,0.0,0.0,0.0,0.0,0.0,0.0,0,0,100,29.63,29.49,0,0,0,0.02
2013-6-25,0.0,0.0,0.0,0.0,0.0,0.0,0,0,100,29.75,29.57,0,0,0,0.02
2013-6-26,0.0,0.0,0.0,0.0,0.0,0.0,0,0,100,30.00,29.74,0,0,0,0.02
2013-6-27,0.0,0.0,0.0,0.0,0.0,0.0,0,0,100,30.15,29.96,0,0,0,0.02
2013-6-28,0.0,0.0,0.0,0.0,0.0,0.0,0,0,100,30.16,30.02,0,0,0,0.02
2013-6-29,0.0,0.0,0.0,0.0,0.0,0.0,0,0,100,30.06,29.97,0,0,0,0.02
2013-6-30,0.0,0.0,0.0,0.0,0.0,0.0,0,0,100,29.97,29.85,0,0,0,0.02
2013-7-1,0.0,0.0,0.0,0.0,0.0,0.0,0,0,100,29.92,29.86,0,0,0,0.02
2013-7-4,61.3,58.6,56.1,53.4,52.7,51.9,89,81,72,29.90,29.84,34,21,39,0.02
2013-7-5,72.5,60.2,55.9,54.7,53.0,51.3,89,79,49,29.84,29.79,23,10,28,0.00
2013-7-6,73.0,60.4,53.2,54.2,51.8,49.2,90,75,47,29.81,29.69,32,9,37,0.00
2013-7-7,59.7,56.4,54.0,54.1,53.0,52.0,95,89,79,29.75,29.69,26,13,32,0.00
2013-7-8,61.3,55.7,52.2,55.0,52.9,51.6,98,91,79,29.91,29.75,27,12,34,0.00
2013-7-9,58.5,53.9,51.6,53.6,51.9,50.4,99,93,79,29.93,29.81,46,22,56,0.01
2013-7-10,56.5,54.7,52.9,51.7,50.3,46.9,95,86,73,29.87,29.77,40,27,49,0.00
2013-7-11,57.4,56.0,54.0,50.5,48.2,44.9,85,75,67,29.89,29.78,34,21,41,0.00
2013-7-12,57.9,55.4,53.4,52.0,49.0,46.4,89,79,73,29.92,29.82,28,13,34,0.00
2013-7-13,59.2,55.6,51.3,52.9,49.4,45.6,86,80,74,30.01,29.92,19,10,26,0.00
2013-7-14,59.0,54.8,51.1,52.7,50.2,48.1,96,85,75,29.95,29.82,34,16,42,0.00
2013-7-15,79.3,63.9,50.9,53.9,47.5,34.7,91,61,24,29.88,29.74,17,6,21,0.00
2013-7-16,78.3,68.3,55.2,54.9,48.9,43.4,72,52,35,29.74,29.63,9,4,12,0.00
2013-7-17,72.0,61.2,56.8,56.1,54.1,50.2,90,79,48,30.01,29.69,31,13,39,0.00
2013-7-18,59.2,57.4,55.8,55.1,54.1,52.9,95,89,84,30.05,29.95,31,17,36,0.00
2013-7-19,57.6,56.0,54.1,55.3,54.6,53.3,99,95,91,29.97,29.86,38,24,45,0.00
2013-7-20,57.4,55.2,53.8,54.9,53.7,52.9,97,95,89,29.90,29.78,34,19,39,0.00
2013-7-21,61.7,56.1,53.6,56.2,54.1,52.8,97,93,80,29.79,29.75,30,13,34,0.00
2013-7-22,65.7,55.4,52.0,59.9,53.9,51.4,99,95,82,29.88,29.76,27,12,31,0.00
2013-7-23,55.9,52.8,51.4,53.5,52.0,51.2,99,97,89,29.89,29.83,28,18,36,0.01
2013-7-24,54.5,52.0,50.2,53.1,51.4,49.9,99,98,94,29.88,29.82,38,23,42,0.00
2013-7-25,59.2,54.0,51.3,55.7,52.2,51.0,99,94,80,29.93,29.83,39,18,46,0.01
2013-7-26,58.3,55.4,53.1,53.3,52.0,50.7,96,89,77,29.97,29.88,51,20,58,0.00
2013-7-27,57.0,57.0,57.0,52.2,52.2,52.2,84,84,84,29.96,29.81,23,9,26,0.00
2013-7-28,57.0,57.0,57.0,52.2,52.2,52.2,84,84,84,29.82,29.78,16,9,23,0.00
2013-7-29,57.0,57.0,57.0,52.2,52.2,52.2,84,84,84,29.83,29.79,24,9,28,0.00
2013-7-30,57.0,57.0,57.0,52.2,52.2,52.2,84,84,84,29.96,29.83,27,12,32,0.00
2013-7-31,57.0,57.0,57.0,52.2,52.2,52.2,84,84,84,29.93,29.82,27,12,31,0.00
2013-8-1,57.0,57.0,57.0,52.2,52.2,52.2,84,84,84,29.86,29.82,27,13,31,0.00
2013-8-2,57.0,57.0,57.0,52.2,52.2,52.2,84,84,84,29.94,29.85,14,5,19,0.26
2013-8-3,57.0,57.0,57.0,52.2,52.2,52.2,84,84,84,29.96,29.90,14,8,17,0.00
2013-8-4,57.0,57.0,57.0,52.2,52.2,52.2,84,84,84,29.91,29.91,13,13,14,0.00
2013-8-5,57.0,57.0,57.0,52.2,52.2,52.2,84,84,84,29.91,29.91,13,13,14,0.00
2013-8-6,57.0,57.0,57.0,52.2,52.2,52.2,84,84,84,29.91,29.91,13,13,14,0.00
2013-8-26,68.9,59.1,55.0,51.1,49.6,47.9,80,71,53,29.98,29.92,10,5,14,0.00
2013-8-27,63.0,57.8,53.8,56.0,51.9,48.9,90,81,66,29.99,29.89,23,5,26,0.08
2013-8-28,64.4,59.3,54.7,59.4,55.9,53.0,96,89,75,29.98,29.88,11,3,14,0.01
2013-8-29,64.9,59.2,53.8,64.1,57.4,52.7,97,94,88,30.04,29.89,14,5,17,0.05
2013-8-30,68.4,61.0,56.7,59.2,54.8,52.1,97,81,65,30.23,30.04,16,1,20,0.00
2013-8-31,76.8,61.7,52.0,58.9,54.0,49.7,93,78,50,30.18,29.91,0,0,2,0.00
2013-9-1,66.9,60.0,53.1,57.0,52.9,48.6,90,78,66,29.94,29.89,4,0,8,0.00
2013-9-2,68.5,59.9,53.8,59.3,53.8,50.4,92,81,59,30.01,29.91,14,1,20,0.04
2013-9-3,69.3,59.3,53.8,60.8,55.9,52.1,96,89,69,30.11,30.00,11,3,14,0.20
2013-9-4,70.2,60.1,53.2,61.2,55.6,51.6,95,86,64,30.13,30.08,12,4,17,0.01
2013-9-5,75.0,62.7,55.2,62.0,57.3,50.5,93,84,59,30.12,30.03,13,6,15,0.20
2013-11-21,32.9,30.2,28.4,24.5,23.1,21.8,78,75,69,30.50,30.47,0,0,0,0.00
2013-11-22,48.9,34.9,27.0,35.2,25.8,20.6,85,71,48,30.49,30.28,0,0,0,0.00
2013-11-23,51.3,36.9,28.4,38.8,30.2,23.3,85,77,60,30.28,30.03,0,0,1,0.00
2013-11-24,37.2,34.0,30.6,33.4,30.0,26.3,87,85,82,30.07,30.00,0,0,0,0.00
2013-11-25,46.8,38.3,32.4,40.7,34.6,28.4,93,86,75,30.13,30.07,0,0,1,0.00
2013-11-26,42.3,37.0,29.7,39.5,33.8,26.3,95,88,84,30.08,29.89,0,0,1,0.00
2013-11-27,55.9,42.9,34.5,45.9,38.2,31.6,91,84,67,29.89,29.77,0,0,1,0.01
2013-11-28,57.9,43.2,34.2,46.3,38.5,31.0,94,84,64,29.96,29.81,0,0,1,0.00
2013-11-29,49.8,46.9,41.5,44.8,43.2,38.0,91,87,79,30.10,29.96,0,0,1,0.02
2013-11-30,48.2,45.6,43.9,46.0,43.4,42.3,95,92,89,30.09,29.83,0,0,0,0.04
2013-12-1,53.6,46.9,40.1,46.8,42.9,31.9,98,86,64,29.82,29.46,10,0,47,0.26
2013-12-2,48.2,41.1,36.1,35.9,30.7,15.2,91,68,43,29.92,29.54,8,0,27,0.00
2013-12-3,55.9,37.2,27.3,20.4,15.3,7.8,64,44,22,30.13,29.93,0,0,1,0.00
2013-12-4,50.4,35.0,24.6,24.0,13.3,1.5,57,43,23,30.15,30.11,0,0,1,0.00
2013-12-5,36.0,29.0,22.8,22.8,15.9,4.8,77,59,41,30.11,29.97,0,0,0,0.00
2013-12-6,42.4,28.7,23.5,19.8,9.7,-0.9,71,47,22,30.09,29.97,0,0,1,0.00
2013-12-7,41.9,25.9,16.9,7.5,2.8,-2.2,51,39,22,30.20,30.08,0,0,0,0.00
2013-12-8,51.3,28.2,17.6,15.4,10.0,0.5,68,49,24,30.34,30.19,0,0,1,0.00
2013-12-9,38.8,31.6,21.4,27.2,21.7,12.1,81,67,54,30.35,30.25,0,0,0,0.00
2013-12-10,47.7,36.0,30.0,37.7,30.8,25.7,88,81,61,30.25,30.19,0,0,2,0.01
2013-12-11,42.8,34.1,27.5,35.7,30.0,24.2,92,85,72,30.20,29.94,0,0,0,0.00
2013-12-12,64.8,38.1,29.7,47.8,32.7,26.8,92,82,38,29.94,29.75,0,0,0,0.00
2013-12-13,58.3,43.6,36.5,43.2,39.2,33.6,95,86,57,30.20,29.90,0,0,1,0.00
2013-12-14,52.2,45.0,40.8,44.7,42.4,39.2,96,91,72,30.20,30.05,0,0,1,0.00
2013-12-15,61.7,46.4,38.8,46.3,41.8,37.5,95,85,58,30.23,30.08,0,0,2,0.00
2013-12-16,49.3,49.3,49.3,44.6,44.6,44.6,84,84,84,30.23,30.23,0,0,0,0.00
2013-12-17,49.3,49.3,49.3,44.6,44.6,44.6,84,84,84,30.23,30.23,0,0,0,0.00
2013-12-18,49.3,49.3,49.3,44.6,44.6,44.6,84,84,84,30.23,30.23,0,0,0,0.00
2013-12-19,49.3,49.3,49.3,44.6,44.6,44.6,84,84,84,30.23,30.13,0,0,0,0.00
2013-12-20,49.3,49.3,49.3,44.6,44.6,44.6,84,84,84,30.13,29.60,0,0,0,0.00
2013-12-21,49.3,49.3,49.3,44.6,44.6,44.6,84,84,84,29.98,29.60,0,0,0,0.00
2013-12-22,49.3,49.3,49.3,44.6,44.6,44.6,84,84,84,30.03,29.96,0,0,0,0.00